Woden, Iowa
Current Conditions -  °F | °C
As of 8:50 AM on Monday 24 Nov 2014 (Local Time) from KFXY Reporting Station
Overcast Overcast  
Wind Chill:   Ceiling: 1200
Heat Index: 21°   Visibility: 10mi
Dew Point: 18°   Wind: 18mph
Humidity: 86%   Direction: 310°NW
Pressure: 29.46"   Gusts: 35mph
Location:  43.23°N, 93.91°W
Report Text: KFXY 241450Z AUTO 31016G30KT 10SM OVC012 M06/M08 A2946 RMK AO2
Loading
Personal Weather Stations






























Interactive Weather Map New forecast layout! Learn more

10-Day Weather Forecast

Advertisements
Track Severe Weather on mobile